Time,TemperatureF,DewpointF,PressureIn,WindDirection,WindDirectionDegrees,WindSpeedMPH,WindSpeedGustMPH,Humidity,HourlyPrecipIn,Conditions,Clouds,dailyrainin,SoftwareType,DateUTC
2013-04-13 00:05:00,39.2,36.0,29.92,West,264,10.0,14.0,88,0.00,,,0.00,weatherlink.com 1.10,2013-04-13 05:05:00,
2013-04-13 00:20:00,39.1,36.0,29.92,WSW,256,9.0,11.0,89,0.00,,,0.00,weatherlink.com 1.10,2013-04-13 05:20:00,
2013-04-13 00:35:00,39.1,36.0,29.93,West,269,9.0,14.0,88,0.00,,,0.00,weatherlink.com 1.10,2013-04-13 05:35:00,
2013-04-13 00:50:00,38.9,35.0,29.93,West,266,10.0,13.0,87,0.00,,,0.00,weatherlink.com 1.10,2013-04-13 05:50:00,
2013-04-13 01:05:00,38.9,35.0,29.94,West,267,12.0,16.0,85,0.00,,,0.00,weatherlink.com 1.10,2013-04-13 06:05:00,
2013-04-13 01:21:00,38.8,35.0,29.94,WNW,285,9.0,15.0,85,0.00,,,0.00,weatherlink.com 1.10,2013-04-13 06:21:00,
2013-04-13 01:36:00,38.6,35.0,29.94,West,272,11.0,14.0,85,0.00,,,0.00,weatherlink.com 1.10,2013-04-13 06:36:00,
2013-04-13 02:06:00,38.4,35.0,29.93,West,265,10.0,12.0,87,0.00,,,0.00,weatherlink.com 1.10,2013-04-13 07:06:00,
2013-04-13 02:21:00,38.2,35.0,29.93,West,259,11.0,12.0,88,0.00,,,0.00,weatherlink.com 1.10,2013-04-13 07:21:00,
2013-04-13 02:51:00,38.2,34.0,29.92,West,277,8.0,13.0,85,0.00,,,0.00,weatherlink.com 1.10,2013-04-13 07:51:00,
2013-04-13 03:36:00,37.7,35.0,29.92,WSW,252,7.0,11.0,88,0.00,,,0.00,weatherlink.com 1.10,2013-04-13 08:36:00,
2013-04-13 03:51:00,37.7,34.0,29.92,West,266,8.0,11.0,87,0.00,,,0.00,weatherlink.com 1.10,2013-04-13 08:51:00,
2013-04-13 04:21:00,37.7,33.0,29.92,West,262,11.0,14.0,83,0.00,,,0.00,weatherlink.com 1.10,2013-04-13 09:21:00,
2013-04-13 05:21:00,37.3,34.0,29.91,WSW,256,11.0,13.0,87,0.00,,,0.00,weatherlink.com 1.10,2013-04-13 10:21:00,
2013-04-13 06:36:00,36.8,32.0,29.93,WSW,251,11.0,13.0,82,0.00,,,0.00,weatherlink.com 1.10,2013-04-13 11:36:00,
2013-04-13 06:51:00,36.6,31.0,29.93,West,269,14.0,19.0,79,0.00,,,0.00,weatherlink.com 1.10,2013-04-13 11:51:00,
2013-04-13 07:51:00,36.2,31.0,29.95,NW,314,8.0,17.0,82,0.00,,,0.00,weatherlink.com 1.10,2013-04-13 12:51:00,
2013-04-13 08:21:00,35.5,31.0,29.96,NW,304,5.0,16.0,83,0.00,,,0.00,weatherlink.com 1.10,2013-04-13 13:21:00,
2013-04-13 08:51:00,35.2,30.0,29.97,West,281,12.0,18.0,82,0.00,,,0.00,weatherlink.com 1.10,2013-04-13 13:51:00,
2013-04-13 09:06:00,35.9,30.0,29.98,West,262,8.0,16.0,80,0.00,,,0.00,weatherlink.com 1.10,2013-04-13 14:06:00,
2013-04-13 09:21:00,35.9,29.0,29.98,West,263,10.0,22.0,77,0.00,,,0.00,weatherlink.com 1.10,2013-04-13 14:21:00,
2013-04-13 09:37:00,36.2,30.0,29.99,WNW,297,7.0,25.0,77,0.00,,,0.00,weatherlink.com 1.10,2013-04-13 14:37:00,
2013-04-13 09:52:00,37.6,29.0,29.99,WSW,255,9.0,16.0,72,0.00,,,0.00,weatherlink.com 1.10,2013-04-13 14:52:00,
2013-04-13 10:07:00,37.7,29.0,29.99,NW,321,11.0,20.0,71,0.00,,,0.00,weatherlink.com 1.10,2013-04-13 15:07:00,
2013-04-13 10:22:00,39.0,31.0,29.99,West,271,8.0,18.0,74,0.00,,,0.00,weatherlink.com 1.10,2013-04-13 15:22:00,
2013-04-13 11:07:00,40.9,33.0,30.00,WNW,297,6.0,16.0,73,0.00,,,0.00,weatherlink.com 1.10,2013-04-13 16:07:00,
2013-04-13 11:22:00,41.2,31.0,30.00,West,279,8.0,18.0,68,0.00,,,0.00,weatherlink.com 1.10,2013-04-13 16:22:00,
2013-04-13 11:52:00,42.4,34.0,30.00,West,281,12.0,18.0,73,0.00,,,0.00,weatherlink.com 1.10,2013-04-13 16:52:00,
2013-04-13 12:07:00,42.1,33.0,30.00,WNW,284,11.0,19.0,69,0.00,,,0.00,weatherlink.com 1.10,2013-04-13 17:07:00,
2013-04-13 12:22:00,44.3,37.0,30.00,WNW,285,12.0,16.0,74,0.00,,,0.00,weatherlink.com 1.10,2013-04-13 17:22:00,
2013-04-13 12:37:00,43.9,36.0,30.00,WNW,294,13.0,19.0,73,0.00,,,0.00,weatherlink.com 1.10,2013-04-13 17:37:00,
2013-04-13 12:52:00,44.5,34.0,29.99,West,269,14.0,17.0,67,0.00,,,0.00,weatherlink.com 1.10,2013-04-13 17:52:00,
2013-04-13 13:07:00,45.1,35.0,29.99,WNW,283,13.0,20.0,69,0.00,,,0.00,weatherlink.com 1.10,2013-04-13 18:07:00,
2013-04-13 13:22:00,45.6,35.0,29.99,WNW,283,3.0,19.0,67,0.00,,,0.00,weatherlink.com 1.10,2013-04-13 18:22:00,
2013-04-13 13:37:00,45.3,36.0,29.99,West,278,11.0,19.0,69,0.00,,,0.00,weatherlink.com 1.10,2013-04-13 18:37:00,
2013-04-13 13:52:00,45.9,35.0,29.99,West,267,16.0,18.0,67,0.00,,,0.00,weatherlink.com 1.10,2013-04-13 18:52:00,
2013-04-13 14:07:00,46.0,34.0,29.99,West,262,9.0,19.0,64,0.00,,,0.00,weatherlink.com 1.10,2013-04-13 19:07:00,
2013-04-13 14:22:00,46.5,37.0,29.99,WSW,255,7.0,16.0,70,0.00,,,0.00,weatherlink.com 1.10,2013-04-13 19:22:00,
2013-04-13 14:37:00,46.8,36.0,29.99,WSW,257,10.0,17.0,66,0.00,,,0.00,weatherlink.com 1.10,2013-04-13 19:37:00,
2013-04-13 14:52:00,46.9,36.0,29.99,WSW,245,9.0,18.0,66,0.00,,,0.00,weatherlink.com 1.10,2013-04-13 19:52:00,
2013-04-13 15:07:00,46.7,37.0,29.99,West,266,9.0,20.0,68,0.00,,,0.00,weatherlink.com 1.10,2013-04-13 20:07:00,
2013-04-13 15:22:00,47.3,36.0,29.98,West,269,8.0,16.0,66,0.00,,,0.00,weatherlink.com 1.10,2013-04-13 20:22:00,
2013-04-13 15:37:00,48.1,35.0,29.98,West,271,11.0,17.0,61,0.00,,,0.00,weatherlink.com 1.10,2013-04-13 20:37:00,
2013-04-13 15:52:00,48.3,35.0,29.97,WSW,253,10.0,18.0,60,0.00,,,0.00,weatherlink.com 1.10,2013-04-13 20:52:00,
2013-04-13 16:07:00,48.6,36.0,29.97,West,264,12.0,16.0,62,0.00,,,0.00,weatherlink.com 1.10,2013-04-13 21:07:00,
2013-04-13 16:22:00,48.2,35.0,29.97,WSW,255,11.0,18.0,60,0.00,,,0.00,weatherlink.com 1.10,2013-04-13 21:22:00,
2013-04-13 16:37:00,48.1,34.0,29.97,WSW,250,6.0,16.0,59,0.00,,,0.00,weatherlink.com 1.10,2013-04-13 21:37:00,
2013-04-13 16:52:00,48.9,36.0,29.97,WSW,242,10.0,16.0,62,0.00,,,0.00,weatherlink.com 1.10,2013-04-13 21:52:00,
2013-04-13 17:07:00,49.4,38.0,29.97,West,276,11.0,12.0,64,0.00,,,0.00,weatherlink.com 1.10,2013-04-13 22:07:00,
2013-04-13 17:22:00,49.6,37.0,29.97,WSW,255,5.0,14.0,62,0.00,,,0.00,weatherlink.com 1.10,2013-04-13 22:22:00,
2013-04-13 17:37:00,48.8,37.0,29.97,WSW,257,7.0,14.0,64,0.00,,,0.00,weatherlink.com 1.10,2013-04-13 22:37:00,
2013-04-13 17:52:00,49.4,36.0,29.97,West,262,13.0,14.0,60,0.00,,,0.00,weatherlink.com 1.10,2013-04-13 22:52:00,
2013-04-13 18:07:00,49.3,36.0,29.97,WSW,252,9.0,13.0,60,0.00,,,0.00,weatherlink.com 1.10,2013-04-13 23:07:00,
2013-04-13 18:22:00,48.5,35.0,29.96,West,278,6.0,14.0,61,0.00,,,0.00,weatherlink.com 1.10,2013-04-13 23:22:00,
2013-04-13 18:37:00,47.5,36.0,29.97,WSW,242,11.0,11.0,64,0.00,,,0.00,weatherlink.com 1.10,2013-04-13 23:37:00,
2013-04-13 18:52:00,47.1,37.0,29.97,West,260,4.0,9.0,69,0.00,,,0.00,weatherlink.com 1.10,2013-04-13 23:52:00,
2013-04-13 19:07:00,47.0,38.0,29.96,WSW,253,6.0,6.0,70,0.00,,,0.00,weatherlink.com 1.10,2013-04-14 00:07:00,
2013-04-13 19:22:00,46.5,39.0,29.96,SW,231,3.0,5.0,74,0.00,,,0.00,weatherlink.com 1.10,2013-04-14 00:22:00,
2013-04-13 19:37:00,46.0,38.0,29.97,West,259,3.0,4.0,74,0.00,,,0.00,weatherlink.com 1.10,2013-04-14 00:37:00,
2013-04-13 19:52:00,45.5,39.0,29.96,SW,228,3.0,5.0,78,0.00,,,0.00,weatherlink.com 1.10,2013-04-14 00:52:00,
2013-04-13 20:07:00,45.3,39.0,29.96,West,262,2.0,3.0,79,0.00,,,0.00,weatherlink.com 1.10,2013-04-14 01:07:00,
2013-04-13 20:23:00,44.5,39.0,29.96,SSW,198,3.0,4.0,82,0.00,,,0.00,weatherlink.com 1.10,2013-04-14 01:23:00,
2013-04-13 20:38:00,44.9,39.0,29.96,SW,217,1.0,3.0,80,0.00,,,0.00,weatherlink.com 1.10,2013-04-14 01:38:00,
2013-04-13 20:53:00,44.7,39.0,29.96,SW,218,0.0,0.0,80,0.00,,,0.00,weatherlink.com 1.10,2013-04-14 01:53:00,
2013-04-13 21:23:00,44.6,40.0,29.96,SSE,160,2.0,3.0,83,0.00,,,0.00,weatherlink.com 1.10,2013-04-14 02:23:00,
2013-04-13 21:38:00,43.9,39.0,29.96,SSE,155,1.0,2.0,83,0.00,,,0.00,weatherlink.com 1.10,2013-04-14 02:38:00,
2013-04-13 21:53:00,43.5,38.0,29.96,SSE,156,1.0,2.0,81,0.00,,,0.00,weatherlink.com 1.10,2013-04-14 02:53:00,
2013-04-13 22:08:00,42.9,37.0,29.97,SSE,156,1.0,2.0,81,0.00,,,0.00,weatherlink.com 1.10,2013-04-14 03:08:00,
2013-04-13 22:22:00,43.1,37.0,29.96,SE,142,0.0,2.0,79,0.00,,,0.00,weatherlink.com 1.10,2013-04-14 03:22:00,
2013-04-13 22:37:00,43.3,37.0,29.96,SE,133,1.0,2.0,79,0.00,,,0.00,weatherlink.com 1.10,2013-04-14 03:37:00,
2013-04-13 22:52:00,43.0,37.0,29.96,SSE,148,1.0,4.0,80,0.00,,,0.00,weatherlink.com 1.10,2013-04-14 03:52:00,
2013-04-13 23:08:00,43.4,38.0,29.96,SE,129,1.0,4.0,80,0.00,,,0.00,weatherlink.com 1.10,2013-04-14 04:08:00,
2013-04-13 23:22:00,42.3,38.0,29.96,ESE,114,3.0,3.0,85,0.00,,,0.00,weatherlink.com 1.10,2013-04-14 04:22:00,
2013-04-13 23:52:00,40.9,38.0,29.96,ESE,113,2.0,3.0,89,0.00,,,0.00,weatherlink.com 1.10,2013-04-14 04:52:00,